createdAt,value
2019-05-19T00:04:37.687Z,11.00
2019-05-19T00:10:07.732Z,10.90
2019-05-19T00:15:38.042Z,10.90
2019-05-19T00:21:07.318Z,10.70
2019-05-19T00:26:36.998Z,10.60
2019-05-19T00:32:06.257Z,10.50
2019-05-19T00:37:35.565Z,10.50
2019-05-19T00:43:04.912Z,10.40
2019-05-19T00:48:34.171Z,10.30
2019-05-19T00:54:03.522Z,10.20
2019-05-19T00:59:33.649Z,10.20
2019-05-19T01:05:05.868Z,10.10
2019-05-19T01:10:35.490Z,10.00
2019-05-19T01:16:04.828Z,10.00
2019-05-19T01:21:35.364Z,9.90
2019-05-19T01:27:04.657Z,9.90
2019-05-19T01:32:33.931Z,9.80
2019-05-19T01:38:03.215Z,9.80
2019-05-19T01:43:32.495Z,9.70
2019-05-19T01:49:01.768Z,9.70
2019-05-19T01:54:32.007Z,9.60
2019-05-19T02:00:01.350Z,9.50
2019-05-19T02:05:30.630Z,9.50
2019-05-19T02:10:59.912Z,9.50
2019-05-19T02:16:29.255Z,9.60
2019-05-19T02:21:58.537Z,9.50
2019-05-19T02:27:27.829Z,9.50
2019-05-19T02:32:57.102Z,9.50
2019-05-19T02:38:26.431Z,9.50
2019-05-19T02:43:57.371Z,9.50
2019-05-19T02:49:29.220Z,9.60
2019-05-19T02:55:00.112Z,9.70
2019-05-19T03:00:41.802Z,9.80
2019-05-19T03:06:11.150Z,9.80
2019-05-19T03:11:40.669Z,9.80
2019-05-19T03:17:09.935Z,9.70
2019-05-19T03:22:39.208Z,9.70
2019-05-19T03:28:08.485Z,9.70
2019-05-19T03:33:39.414Z,9.70
2019-05-19T03:39:08.678Z,9.70
2019-05-19T03:44:37.974Z,9.70
2019-05-19T03:50:07.377Z,9.70
2019-05-19T03:55:36.723Z,9.80
2019-05-19T04:01:08.012Z,9.90
2019-05-19T04:06:37.369Z,9.90
2019-05-19T04:12:06.653Z,10.00
2019-05-19T04:17:35.929Z,10.10
2019-05-19T04:23:05.342Z,10.20
2019-05-19T04:28:34.641Z,10.40
2019-05-19T04:34:03.923Z,10.50
2019-05-19T04:39:35.722Z,10.70
2019-05-19T04:45:05.645Z,10.70
2019-05-19T04:50:34.932Z,11.00
2019-05-19T04:56:04.208Z,11.20
2019-05-19T05:01:33.490Z,11.30
2019-05-19T05:07:02.823Z,11.50
2019-05-19T05:12:32.122Z,11.80
2019-05-19T05:18:01.428Z,12.00
2019-05-19T05:23:30.685Z,12.20
2019-05-19T05:29:00.926Z,12.30
2019-05-19T05:34:32.584Z,12.50
2019-05-19T05:40:03.604Z,12.60
2019-05-19T05:45:32.905Z,12.80
2019-05-19T05:51:02.194Z,13.10
2019-05-19T05:56:31.481Z,13.30
2019-05-19T06:02:00.781Z,13.50
2019-05-19T06:07:30.152Z,13.80
2019-05-19T06:13:01.412Z,13.80
2019-05-19T06:18:30.686Z,13.90
2019-05-19T06:23:59.986Z,14.00
2019-05-19T06:29:29.284Z,14.10
2019-05-19T06:34:58.571Z,14.20
2019-05-19T06:40:27.844Z,14.30
2019-05-19T06:45:57.118Z,14.50
2019-05-19T06:51:26.479Z,14.60
2019-05-19T06:56:55.747Z,14.80
2019-05-19T07:02:25.114Z,15.10
2019-05-19T07:07:54.395Z,15.30
2019-05-19T07:13:25.383Z,15.40
2019-05-19T07:18:54.670Z,15.60
2019-05-19T07:24:24.005Z,16.00
2019-05-19T07:29:54.306Z,16.20
2019-05-19T07:35:23.591Z,16.10
2019-05-19T07:40:52.914Z,16.10
2019-05-19T07:46:22.205Z,16.20
2019-05-19T07:51:51.563Z,16.20
2019-05-19T07:57:21.873Z,16.30
2019-05-19T08:02:51.151Z,16.50
2019-05-19T08:08:20.445Z,16.70
2019-05-19T08:13:49.982Z,16.90
2019-05-19T08:19:19.283Z,16.90
2019-05-19T08:24:48.686Z,17.10
2019-05-19T08:30:18.515Z,17.30
2019-05-19T08:35:48.860Z,17.60
2019-05-19T08:41:18.238Z,17.80
2019-05-19T08:46:49.178Z,17.90
2019-05-19T08:52:18.449Z,18.10
2019-05-19T08:57:47.804Z,18.00
2019-05-19T09:03:17.733Z,18.20
2019-05-19T09:08:47.173Z,18.20
2019-05-19T09:14:17.908Z,18.60
2019-05-19T09:19:47.186Z,18.90
2019-05-19T09:25:17.591Z,19.20
2019-05-19T09:30:49.128Z,19.40
2019-05-19T09:36:18.627Z,19.50
2019-05-19T09:41:47.929Z,19.70
2019-05-19T09:47:17.432Z,19.90
2019-05-19T09:52:49.183Z,20.20
2019-05-19T09:58:20.366Z,20.40
2019-05-19T10:03:49.655Z,20.50
2019-05-19T10:09:30.135Z,20.50
2019-05-19T10:14:59.527Z,20.60
2019-05-19T10:20:28.807Z,20.70
2019-05-19T10:25:58.098Z,21.10
2019-05-19T10:31:27.373Z,21.60
2019-05-19T10:36:56.643Z,21.70
2019-05-19T10:42:25.919Z,21.90
2019-05-19T10:47:56.142Z,22.10
2019-05-19T10:53:25.420Z,22.20
2019-05-19T10:58:54.871Z,22.50
2019-05-19T11:04:24.230Z,22.70
2019-05-19T11:09:55.805Z,22.60
2019-05-19T11:15:25.135Z,22.60
2019-05-19T11:20:56.194Z,22.60
2019-05-19T11:26:28.232Z,22.90
2019-05-19T11:31:57.469Z,22.90
2019-05-19T11:37:27.708Z,22.80
2019-05-19T11:42:57.943Z,22.90
2019-05-19T11:48:27.317Z,23.10
2019-05-19T11:53:56.762Z,23.20
2019-05-19T11:59:26.051Z,23.20
2019-05-19T12:04:57.313Z,23.30
2019-05-19T12:10:26.737Z,23.40
2019-05-19T12:15:56.148Z,23.50
2019-05-19T12:21:25.693Z,23.50
2019-05-19T12:26:54.970Z,23.40
2019-05-19T12:32:24.246Z,23.30
2019-05-19T12:37:54.531Z,23.30
2019-05-19T12:43:23.808Z,23.50
2019-05-19T12:48:53.091Z,23.50
2019-05-19T12:54:22.473Z,23.50
2019-05-19T12:59:51.819Z,23.50
2019-05-19T13:05:22.843Z,23.50
2019-05-19T13:10:52.324Z,23.50
2019-05-19T13:16:21.575Z,23.40
2019-05-19T13:21:50.845Z,23.40
2019-05-19T13:27:20.208Z,23.40
2019-05-19T13:32:49.490Z,23.30
2019-05-19T13:38:19.698Z,23.30
2019-05-19T13:43:49.055Z,23.40
2019-05-19T13:49:18.417Z,23.50
2019-05-19T13:54:47.680Z,23.70
2019-05-19T14:00:17.483Z,23.90
2019-05-19T14:05:46.878Z,24.10
2019-05-19T14:11:16.128Z,23.90
2019-05-19T14:16:45.421Z,23.50
2019-05-19T14:22:14.700Z,23.30
2019-05-19T14:27:43.976Z,23.40
2019-05-19T14:33:14.555Z,23.50
2019-05-19T14:38:59.925Z,23.80
2019-05-19T14:44:29.330Z,24.00
2019-05-19T14:49:58.631Z,25.50
2019-05-19T14:55:27.912Z,26.00
2019-05-19T15:00:57.193Z,25.00
2019-05-19T15:06:26.866Z,24.10
2019-05-19T15:11:56.149Z,23.50
2019-05-19T15:17:25.428Z,23.10
2019-05-19T15:22:54.773Z,22.80
2019-05-19T15:28:24.319Z,22.40
2019-05-19T15:33:53.665Z,22.20
2019-05-19T15:39:22.948Z,22.00
2019-05-19T15:44:53.201Z,21.90
2019-05-19T15:50:24.235Z,21.90
2019-05-19T15:55:53.590Z,21.90
2019-05-19T16:01:22.874Z,22.00
2019-05-19T16:06:52.193Z,22.10
2019-05-19T16:12:21.775Z,22.00
2019-05-19T16:17:57.353Z,22.00
2019-05-19T16:23:26.218Z,21.90
2019-05-19T16:28:55.517Z,21.80
2019-05-19T16:34:24.789Z,21.60
2019-05-19T16:39:54.109Z,21.60
2019-05-19T16:45:23.441Z,21.60
2019-05-19T16:50:52.708Z,21.40
2019-05-19T16:56:22.007Z,21.40
2019-05-19T17:01:51.319Z,21.40
2019-05-19T17:07:21.456Z,21.40
2019-05-19T17:12:50.770Z,21.40
2019-05-19T17:18:23.344Z,21.40
2019-05-19T17:23:52.618Z,21.30
2019-05-19T17:29:21.969Z,21.30
2019-05-19T17:34:54.054Z,21.10
2019-05-19T17:40:23.560Z,21.10
2019-05-19T17:45:53.030Z,20.70
2019-05-19T17:51:23.323Z,20.20
2019-05-19T17:56:53.456Z,19.70
2019-05-19T18:02:22.874Z,19.20
2019-05-19T18:07:52.162Z,18.70
2019-05-19T18:13:22.876Z,18.30
2019-05-19T18:18:52.175Z,18.00
2019-05-19T18:24:21.453Z,17.80
2019-05-19T18:29:50.759Z,17.70
2019-05-19T18:35:20.197Z,17.50
2019-05-19T18:40:54.196Z,17.40
2019-05-19T18:46:23.451Z,17.30
2019-05-19T18:51:52.770Z,17.20
2019-05-19T18:57:21.998Z,17.10
2019-05-19T19:02:51.407Z,17.00
2019-05-19T19:08:20.699Z,16.80
2019-05-19T19:13:50.622Z,16.60
2019-05-19T19:19:20.922Z,16.40
2019-05-19T19:24:50.194Z,16.20
2019-05-19T19:30:19.846Z,15.90
2019-05-19T19:35:49.189Z,15.50
2019-05-19T19:41:18.489Z,15.00
2019-05-19T19:46:47.765Z,14.60
2019-05-19T19:52:17.047Z,14.20
2019-05-19T19:57:46.338Z,14.00
2019-05-19T20:03:15.688Z,13.80
2019-05-19T20:08:44.976Z,13.70
2019-05-19T20:14:14.240Z,13.70
2019-05-19T20:19:44.449Z,13.70
2019-05-19T20:25:13.706Z,13.60
2019-05-19T20:30:43.918Z,13.50
2019-05-19T20:36:16.194Z,13.40
2019-05-19T20:41:45.460Z,13.40
2019-05-19T20:47:14.938Z,13.40
2019-05-19T20:52:44.239Z,13.40
2019-05-19T20:58:14.544Z,13.40
2019-05-19T21:03:43.832Z,13.50
2019-05-19T21:09:13.106Z,13.40
2019-05-19T21:14:42.486Z,13.40
2019-05-19T21:20:12.727Z,13.50
2019-05-19T21:25:42.000Z,13.50
2019-05-19T21:31:11.272Z,13.60
2019-05-19T21:36:40.644Z,13.60
2019-05-19T21:42:09.919Z,13.50
2019-05-19T21:47:39.253Z,13.50
2019-05-19T21:53:09.549Z,13.40
2019-05-19T21:58:38.817Z,13.40
2019-05-19T22:04:08.093Z,13.30
2019-05-19T22:09:37.372Z,13.20
2019-05-19T22:15:09.318Z,13.10
2019-05-19T22:20:38.597Z,13.00
2019-05-19T22:26:07.873Z,13.00
2019-05-19T22:31:37.397Z,12.90
2019-05-19T22:37:06.785Z,12.90
2019-05-19T22:42:36.062Z,12.80
2019-05-19T22:48:05.346Z,12.80
2019-05-19T22:53:34.622Z,12.70
2019-05-19T22:59:18.613Z,12.70
2019-05-19T23:04:34.897Z,12.70
2019-05-19T23:10:06.317Z,12.70
2019-05-19T23:15:35.585Z,12.60
2019-05-19T23:21:04.934Z,12.60
2019-05-19T23:26:34.221Z,12.60
2019-05-19T23:32:07.128Z,12.50
2019-05-19T23:37:34.514Z,12.40
2019-05-19T23:43:03.813Z,12.40
2019-05-19T23:48:33.100Z,12.30
2019-05-19T23:54:02.378Z,12.30
2019-05-19T23:59:31.655Z,12.30
